Time;durP1;ratioP1;P1;durP2;ratioP2;P2;SDS_P1;SDS_P2;PMS_P1;PMS_P2;Temp;Humidity;BMP_temperature;BMP_pressure;BME280_temperature;BME280_humidity;BME280_pressure;Samples;Min_cycle;Max_cycle;Signal;HPM_P1;HPM_P2
2024/01/31 00:01:37;;;;;;;2.80;0.73;;;15.90;99.90;;;;;;5049985;28;20047;-76
2024/01/31 00:04:04;;;;;;;1.73;0.80;;;15.90;99.90;;;;;;5046208;28;20510;-76
2024/01/31 00:06:30;;;;;;;2.75;0.85;;;15.80;99.90;;;;;;5049353;28;20025;-77
2024/01/31 00:08:57;;;;;;;2.03;1.05;;;15.90;99.90;;;;;;5050779;28;20029;-75
2024/01/31 00:11:28;;;;;;;2.20;0.85;;;15.80;99.90;;;;;;5050588;28;20033;-77
2024/01/31 00:13:55;;;;;;;1.77;0.80;;;15.80;99.90;;;;;;5045616;28;20486;-76
2024/01/31 00:16:21;;;;;;;0.98;0.70;;;15.80;99.90;;;;;;5047465;28;20037;-80
2024/01/31 00:18:47;;;;;;;2.53;0.80;;;15.80;99.90;;;;;;5045820;28;20032;-79
2024/01/31 00:21:13;;;;;;;2.40;0.60;;;15.80;99.90;;;;;;5049665;28;20057;-79
2024/01/31 00:23:38;;;;;;;3.23;0.67;;;15.80;99.90;;;;;;5050479;28;20490;-82
2024/01/31 00:26:04;;;;;;;2.70;0.90;;;15.80;99.90;;;;;;5050837;28;20029;-83
2024/01/31 00:28:30;;;;;;;3.27;0.77;;;15.80;99.90;;;;;;5049965;28;20054;-81
2024/01/31 00:30:55;;;;;;;2.53;0.97;;;15.80;99.90;;;;;;5050758;28;20053;-83
2024/01/31 00:33:21;;;;;;;1.73;0.80;;;15.80;99.90;;;;;;5049775;28;20482;-83
2024/01/31 00:35:47;;;;;;;2.30;0.60;;;15.80;99.90;;;;;;5051152;28;20048;-79
2024/01/31 00:38:12;;;;;;;3.23;1.03;;;15.70;99.90;;;;;;5047456;28;20114;-76
2024/01/31 00:40:38;;;;;;;3.03;1.13;;;15.70;99.90;;;;;;5049107;28;20087;-78
2024/01/31 00:43:04;;;;;;;3.00;0.70;;;15.70;99.90;;;;;;5048963;28;20025;-78
2024/01/31 00:45:30;;;;;;;0.80;0.70;;;15.70;99.90;;;;;;5049354;28;20521;-76
2024/01/31 00:47:55;;;;;;;4.85;1.23;;;15.70;99.90;;;;;;5049610;28;20147;-76
2024/01/31 00:50:21;;;;;;;1.30;0.70;;;15.70;99.90;;;;;;5048491;28;20387;-78
2024/01/31 00:52:47;;;;;;;2.73;0.80;;;15.70;99.90;;;;;;5050095;28;20047;-75
2024/01/31 00:55:13;;;;;;;1.33;0.70;;;15.70;99.90;;;;;;5049667;28;20123;-75
2024/01/31 00:57:39;;;;;;;2.72;0.70;;;15.70;99.90;;;;;;5048665;28;20482;-75
2024/01/31 01:00:05;;;;;;;2.87;0.70;;;15.70;99.90;;;;;;5046707;28;20040;-77
2024/01/31 01:02:31;;;;;;;1.08;0.55;;;15.60;99.90;;;;;;5050088;28;20025;-79
2024/01/31 01:04:57;;;;;;;1.30;0.73;;;15.70;99.90;;;;;;5048512;28;20039;-76
2024/01/31 01:07:23;;;;;;;2.33;0.63;;;15.60;99.90;;;;;;5048638;28;20033;-80
2024/01/31 01:09:49;;;;;;;2.10;0.77;;;15.70;99.90;;;;;;5050762;28;20041;-76
2024/01/31 01:12:15;;;;;;;1.33;0.82;;;15.60;99.90;;;;;;5051859;28;20029;-76
2024/01/31 01:14:40;;;;;;;3.20;0.63;;;15.60;99.90;;;;;;5053444;28;20036;-76
2024/01/31 01:17:06;;;;;;;2.80;0.90;;;15.70;99.90;;;;;;5050742;28;20040;-75
2024/01/31 01:19:32;;;;;;;3.53;0.77;;;15.70;99.90;;;;;;5053319;28;20083;-76
2024/01/31 01:22:00;;;;;;;1.20;0.60;;;15.60;99.90;;;;;;5052913;28;20033;-75
2024/01/31 01:24:26;;;;;;;1.08;0.55;;;15.60;99.90;;;;;;5052087;28;20037;-79
2024/01/31 01:26:51;;;;;;;2.13;0.67;;;15.60;99.90;;;;;;5051621;28;20367;-75
2024/01/31 01:29:17;;;;;;;1.27;0.70;;;15.60;99.90;;;;;;5052895;28;20548;-77
2024/01/31 01:31:43;;;;;;;3.90;0.53;;;15.60;99.90;;;;;;5051665;28;20036;-78
2024/01/31 01:34:11;;;;;;;1.57;0.50;;;15.60;99.90;;;;;;5052066;28;20032;-76
2024/01/31 01:36:36;;;;;;;2.95;0.88;;;15.60;99.90;;;;;;5048973;28;20446;-75
2024/01/31 01:39:03;;;;;;;0.80;0.70;;;15.60;99.90;;;;;;5051483;28;20063;-76
2024/01/31 01:41:29;;;;;;;1.83;0.60;;;15.60;99.90;;;;;;5051994;28;20528;-76
2024/01/31 01:43:54;;;;;;;1.90;0.70;;;15.50;99.90;;;;;;5052481;28;20041;-75
2024/01/31 01:46:21;;;;;;;1.83;0.50;;;15.60;99.90;;;;;;5051719;28;20033;-76
2024/01/31 01:48:47;;;;;;;;;;;15.60;99.90;;;;;;5051904;28;20108;-76
2024/01/31 01:51:18;;;;;;;0.60;0.50;;;15.50;99.90;;;;;;5051769;28;19912;-75
2024/01/31 01:53:45;;;;;;;1.55;0.70;;;15.50;99.90;;;;;;5052221;28;20779;-77
2024/01/31 01:56:13;;;;;;;1.02;0.52;;;15.50;99.90;;;;;;5052560;28;20029;-77
2024/01/31 01:58:40;;;;;;;1.75;0.68;;;15.50;99.90;;;;;;5052272;28;20053;-76
2024/01/31 02:01:07;;;;;;;;;;;15.50;99.90;;;;;;5053251;28;20040;-75
2024/01/31 02:03:32;;;;;;;3.55;1.00;;;15.50;99.90;;;;;;5051347;28;20002;-76
2024/01/31 02:05:59;;;;;;;3.23;0.90;;;15.50;99.90;;;;;;5051104;28;20029;-78
2024/01/31 02:08:28;;;;;;;;;;;15.50;99.90;;;;;;5051535;28;20474;-76
2024/01/31 02:10:55;;;;;;;1.08;0.70;;;15.50;99.90;;;;;;5051332;28;19967;-78
2024/01/31 02:13:21;;;;;;;;;;;15.50;99.90;;;;;;5052759;28;20029;-76
2024/01/31 02:15:58;;;;;;;1.77;0.68;;;15.50;99.90;;;;;;5050816;28;19932;-76
2024/01/31 02:18:27;;;;;;;;;;;15.40;99.90;;;;;;5069665;28;20033;-76
2024/01/31 02:20:53;;;;;;;1.83;0.82;;;15.40;99.90;;;;;;5048463;28;19909;-75
2024/01/31 02:23:18;;;;;;;1.83;0.60;;;15.40;99.90;;;;;;5052404;28;20021;-78
2024/01/31 02:25:48;;;;;;;1.27;0.67;;;15.40;99.90;;;;;;5044873;28;20096;-76
2024/01/31 02:28:14;;;;;;;1.40;0.70;;;15.40;99.90;;;;;;5050043;28;20032;-77
2024/01/31 02:30:40;;;;;;;1.48;0.60;;;15.40;99.90;;;;;;5051789;28;20021;-76
2024/01/31 02:33:06;;;;;;;0.80;0.40;;;15.40;99.90;;;;;;5050156;28;20039;-76
2024/01/31 02:35:33;;;;;;;1.67;0.90;;;15.40;99.90;;;;;;5048967;28;20912;-76
2024/01/31 02:38:02;;;;;;;1.50;0.70;;;15.30;99.90;;;;;;5050481;28;20324;-76
2024/01/31 02:40:29;;;;;;;3.38;0.57;;;15.30;99.90;;;;;;5043467;28;20071;-76
2024/01/31 02:42:57;;;;;;;;;;;15.40;99.90;;;;;;5050765;28;20410;-78
2024/01/31 02:45:23;;;;;;;0.68;0.40;;;15.30;99.90;;;;;;5051066;28;20051;-75
2024/01/31 02:47:49;;;;;;;0.52;0.40;;;15.30;99.90;;;;;;5051548;28;20493;-76
2024/01/31 02:50:15;;;;;;;0.82;0.50;;;15.30;99.90;;;;;;5050138;28;20029;-76
2024/01/31 02:52:41;;;;;;;1.97;0.60;;;15.30;99.90;;;;;;5050053;28;20470;-77
2024/01/31 02:55:07;;;;;;;1.35;0.63;;;15.30;99.90;;;;;;5049908;28;20036;-76
2024/01/31 02:57:34;;;;;;;0.60;0.60;;;15.30;99.90;;;;;;5049702;28;20096;-79
2024/01/31 03:00:00;;;;;;;0.90;0.50;;;15.30;99.90;;;;;;5080674;28;20033;-76
2024/01/31 03:02:26;;;;;;;1.43;0.70;;;15.30;99.90;;;;;;5049777;28;20043;-77
2024/01/31 03:04:51;;;;;;;2.17;0.50;;;15.30;99.90;;;;;;5050238;28;20087;-76
2024/01/31 03:07:17;;;;;;;1.53;0.53;;;15.30;99.90;;;;;;5051336;28;20037;-76
2024/01/31 03:09:43;;;;;;;1.77;0.60;;;15.30;99.90;;;;;;5048867;28;20021;-76
2024/01/31 03:12:09;;;;;;;4.37;0.60;;;15.30;99.90;;;;;;5049688;28;20770;-79
2024/01/31 03:14:35;;;;;;;2.60;0.70;;;15.30;99.90;;;;;;5051230;28;20454;-76
2024/01/31 03:17:01;;;;;;;1.00;0.57;;;15.30;99.90;;;;;;5047923;28;20482;-78
2024/01/31 03:19:28;;;;;;;2.55;0.60;;;15.20;99.90;;;;;;5048537;28;20071;-75
2024/01/31 03:21:54;;;;;;;1.40;0.70;;;15.30;99.90;;;;;;5050813;28;20036;-76
2024/01/31 03:24:21;;;;;;;5.55;0.80;;;15.30;99.90;;;;;;5048566;28;20033;-76
2024/01/31 03:26:47;;;;;;;0.85;0.50;;;15.20;99.90;;;;;;5049778;28;20060;-78
2024/01/31 03:29:13;;;;;;;1.35;0.60;;;15.20;99.90;;;;;;5042946;28;20037;-75
2024/01/31 03:31:39;;;;;;;1.77;0.60;;;15.20;99.90;;;;;;5043968;28;20033;-77
2024/01/31 03:34:05;;;;;;;0.80;0.47;;;15.20;99.90;;;;;;5041307;28;20029;-76
2024/01/31 03:36:31;;;;;;;0.93;0.40;;;15.20;99.90;;;;;;5045628;28;20029;-76
2024/01/31 03:38:58;;;;;;;1.55;0.50;;;15.20;99.90;;;;;;5047522;28;20040;-79
2024/01/31 03:41:28;;;;;;;0.95;0.50;;;15.20;99.90;;;;;;5040499;28;20463;-76
2024/01/31 03:43:54;;;;;;;1.55;0.68;;;15.20;99.90;;;;;;5044185;28;20041;-77
2024/01/31 03:46:21;;;;;;;1.02;0.75;;;15.20;99.90;;;;;;5042958;28;20025;-76
2024/01/31 03:48:46;;;;;;;0.80;0.57;;;15.10;99.90;;;;;;5044366;28;20436;-76
2024/01/31 03:51:22;;;;;;;0.57;0.50;;;15.10;99.90;;;;;;5046885;28;20045;-76
2024/01/31 03:53:49;;;;;;;4.05;0.50;;;15.10;99.90;;;;;;5046822;28;20107;-76
2024/01/31 03:56:15;;;;;;;0.93;0.43;;;15.10;99.90;;;;;;5046372;28;20108;-77
2024/01/31 03:58:42;;;;;;;1.30;0.40;;;15.10;99.90;;;;;;5042590;28;20079;-76
2024/01/31 04:01:08;;;;;;;;;;;15.10;99.90;;;;;;5046435;28;20036;-78
2024/01/31 04:03:36;;;;;;;1.23;0.40;;;15.10;99.90;;;;;;5042483;28;19913;-78
2024/01/31 04:06:01;;;;;;;1.33;0.50;;;15.10;99.90;;;;;;5045594;28;20434;-76
2024/01/31 04:08:27;;;;;;;0.60;0.40;;;15.10;99.90;;;;;;5046702;28;20136;-77
2024/01/31 04:10:53;;;;;;;3.93;0.53;;;15.10;99.90;;;;;;5041225;28;20025;-78
2024/01/31 04:13:19;;;;;;;2.27;0.57;;;15.10;99.90;;;;;;5048736;28;20082;-75
2024/01/31 04:15:45;;;;;;;0.83;0.57;;;15.10;99.90;;;;;;5045588;28;20030;-77
2024/01/31 04:18:11;;;;;;;1.42;0.55;;;15.10;99.90;;;;;;5044986;28;20032;-76
2024/01/31 04:20:40;;;;;;;1.70;0.57;;;15.10;99.90;;;;;;5041249;28;20037;-74
2024/01/31 04:23:07;;;;;;;1.27;0.80;;;15.00;99.90;;;;;;5046252;28;20398;-76
2024/01/31 04:25:33;;;;;;;0.90;0.60;;;15.00;99.90;;;;;;5043989;28;20080;-77
2024/01/31 04:27:59;;;;;;;0.70;0.52;;;15.00;99.90;;;;;;5044270;28;20033;-76
2024/01/31 04:30:25;;;;;;;1.30;0.40;;;15.10;99.90;;;;;;5044758;28;20029;-76
2024/01/31 04:32:50;;;;;;;1.20;0.45;;;15.10;99.90;;;;;;5045581;28;20043;-76
2024/01/31 04:35:16;;;;;;;0.87;0.50;;;15.00;99.90;;;;;;5049163;28;20049;-79
2024/01/31 04:37:42;;;;;;;0.80;0.43;;;15.00;99.90;;;;;;5045722;28;20086;-78
2024/01/31 04:40:08;;;;;;;0.60;0.40;;;15.00;99.90;;;;;;5043648;28;20037;-76
2024/01/31 04:42:34;;;;;;;3.28;0.65;;;15.00;99.90;;;;;;5039813;28;20155;-77
2024/01/31 04:45:00;;;;;;;1.63;0.68;;;15.00;99.90;;;;;;5043873;28;20528;-76
2024/01/31 04:47:26;;;;;;;0.93;0.40;;;15.00;99.90;;;;;;5054045;28;20029;-78
2024/01/31 04:49:52;;;;;;;1.07;0.50;;;15.00;99.90;;;;;;5052189;28;20052;-76
2024/01/31 04:52:18;;;;;;;1.58;0.50;;;15.00;99.90;;;;;;5072616;28;20381;-76
2024/01/31 04:54:44;;;;;;;1.07;0.60;;;14.90;99.90;;;;;;5052473;28;20041;-77
2024/01/31 04:57:10;;;;;;;1.60;0.47;;;14.90;99.90;;;;;;5052972;28;20036;-76
2024/01/31 04:59:39;;;;;;;0.70;0.40;;;14.90;99.90;;;;;;5052763;28;20473;-76
2024/01/31 05:02:06;;;;;;;1.55;0.50;;;14.90;99.90;;;;;;5052838;28;20036;-76
2024/01/31 05:04:32;;;;;;;0.90;0.47;;;14.90;99.90;;;;;;5051823;28;20175;-75
2024/01/31 05:06:58;;;;;;;3.38;0.57;;;14.90;99.90;;;;;;5052412;28;20025;-76
2024/01/31 05:09:24;;;;;;;0.70;0.50;;;14.90;99.90;;;;;;5052085;28;20040;-77
2024/01/31 05:11:49;;;;;;;1.60;0.50;;;14.90;99.90;;;;;;5053660;28;20056;-76
2024/01/31 05:14:15;;;;;;;2.80;0.40;;;14.90;99.90;;;;;;5051842;28;20071;-77
2024/01/31 05:16:42;;;;;;;0.70;0.20;;;14.90;99.90;;;;;;5051719;28;20418;-76
2024/01/31 05:19:11;;;;;;;2.78;0.52;;;14.90;99.90;;;;;;5053585;28;20029;-78
2024/01/31 05:21:44;;;;;;;1.20;0.40;;;14.80;99.90;;;;;;5057276;28;20021;-78
2024/01/31 05:24:09;;;;;;;0.20;0.20;;;14.80;99.90;;;;;;5051731;28;20049;-79
2024/01/31 05:26:35;;;;;;;0.53;0.23;;;14.80;99.90;;;;;;5051431;28;20037;-77
2024/01/31 05:29:01;;;;;;;1.33;0.80;;;14.90;99.90;;;;;;5053620;28;20029;-79
2024/01/31 05:31:26;;;;;;;1.00;0.50;;;14.90;99.90;;;;;;5052965;28;20091;-76
2024/01/31 05:33:52;;;;;;;2.20;0.50;;;14.80;99.90;;;;;;5052646;28;20658;-76
2024/01/31 05:36:18;;;;;;;0.63;0.40;;;14.80;99.90;;;;;;5051671;28;20500;-77
2024/01/31 05:38:44;;;;;;;2.03;0.53;;;14.80;99.90;;;;;;5051981;28;20118;-76
2024/01/31 05:41:10;;;;;;;1.13;0.73;;;14.80;99.90;;;;;;5051072;28;20427;-75
2024/01/31 05:43:36;;;;;;;1.08;0.52;;;14.80;99.90;;;;;;5046859;28;20116;-76
2024/01/31 05:46:01;;;;;;;0.73;0.30;;;14.80;99.90;;;;;;5050738;28;20136;-76
2024/01/31 05:48:27;;;;;;;0.37;0.30;;;14.80;99.90;;;;;;5051430;28;20099;-76
2024/01/31 05:50:53;;;;;;;0.83;0.30;;;14.80;99.90;;;;;;5052896;28;20033;-76
2024/01/31 05:53:18;;;;;;;0.30;0.30;;;14.80;99.90;;;;;;5049915;28;20079;-76
2024/01/31 05:55:44;;;;;;;0.20;0.20;;;14.70;99.90;;;;;;5045655;28;20471;-77
2024/01/31 05:58:10;;;;;;;0.87;0.30;;;14.80;99.90;;;;;;5049266;28;20032;-79
2024/01/31 06:00:35;;;;;;;0.83;0.27;;;14.70;99.90;;;;;;5046873;28;20091;-75
2024/01/31 06:03:01;;;;;;;1.30;0.60;;;14.70;99.90;;;;;;5049748;28;20067;-75
2024/01/31 06:05:27;;;;;;;0.57;0.40;;;14.70;99.90;;;;;;5049227;28;20539;-76
2024/01/31 06:07:53;;;;;;;0.63;0.40;;;14.70;99.90;;;;;;5042829;28;20071;-76
2024/01/31 06:10:19;;;;;;;1.03;0.50;;;14.70;99.90;;;;;;5048207;28;20510;-76
2024/01/31 06:12:45;;;;;;;0.88;0.40;;;14.70;99.90;;;;;;5042791;28;20031;-79
2024/01/31 06:15:11;;;;;;;2.33;0.43;;;14.70;99.90;;;;;;5046085;28;20111;-76
2024/01/31 06:17:38;;;;;;;1.13;0.40;;;14.70;99.90;;;;;;5053403;28;20035;-77
2024/01/31 06:20:04;;;;;;;0.52;0.20;;;14.70;99.90;;;;;;5046724;28;20033;-79
2024/01/31 06:22:30;;;;;;;;;;;14.70;99.90;;;;;;5049132;28;20078;-74
2024/01/31 06:24:56;;;;;;;0.43;0.20;;;14.70;99.90;;;;;;5045016;28;19921;-76
2024/01/31 06:27:22;;;;;;;0.40;0.40;;;14.60;99.90;;;;;;5047972;28;20033;-76
2024/01/31 06:29:47;;;;;;;0.50;0.40;;;14.60;99.90;;;;;;5047799;28;20498;-75
2024/01/31 06:32:20;;;;;;;2.00;0.60;;;14.70;99.90;;;;;;5048911;28;20028;-76
2024/01/31 06:34:47;;;;;;;1.10;0.40;;;14.60;99.90;;;;;;5042156;28;20033;-76
2024/01/31 06:37:12;;;;;;;1.13;0.30;;;14.70;99.90;;;;;;5048928;28;20472;-75
2024/01/31 06:39:38;;;;;;;1.07;0.30;;;14.60;99.90;;;;;;5046252;28;20033;-75
2024/01/31 06:42:06;;;;;;;1.00;0.40;;;14.60;99.90;;;;;;5050106;28;20036;-75
2024/01/31 06:44:33;;;;;;;1.10;0.30;;;14.60;99.90;;;;;;5042333;28;20040;-78
2024/01/31 06:46:58;;;;;;;0.70;0.50;;;14.60;99.90;;;;;;5039105;28;20371;-75
2024/01/31 06:49:24;;;;;;;0.83;0.53;;;14.60;99.90;;;;;;5043827;28;20477;-75
2024/01/31 06:51:50;;;;;;;0.30;0.30;;;14.60;99.90;;;;;;5045646;28;20032;-77
2024/01/31 06:54:16;;;;;;;1.53;0.40;;;14.60;99.90;;;;;;5049658;28;20032;-77
2024/01/31 06:56:42;;;;;;;0.73;0.50;;;14.60;99.90;;;;;;5042186;28;20079;-76
2024/01/31 06:59:08;;;;;;;1.50;0.90;;;14.60;99.90;;;;;;5041629;28;20486;-76
2024/01/31 07:01:34;;;;;;;2.13;0.50;;;14.60;99.90;;;;;;5042124;28;20386;-76
2024/01/31 07:04:00;;;;;;;0.53;0.40;;;14.60;99.90;;;;;;5042030;28;20033;-75
2024/01/31 07:06:26;;;;;;;1.67;0.70;;;14.60;99.90;;;;;;5044562;28;20295;-79
2024/01/31 07:08:51;;;;;;;1.27;0.60;;;14.60;99.90;;;;;;5042359;28;20037;-76
2024/01/31 07:11:17;;;;;;;1.60;0.67;;;14.60;99.90;;;;;;5040133;28;20037;-76
2024/01/31 07:13:43;;;;;;;0.40;0.40;;;14.50;99.90;;;;;;5044975;28;20116;-78
2024/01/31 07:16:12;;;;;;;0.97;0.57;;;14.60;99.90;;;;;;5043212;28;20029;-76
2024/01/31 07:18:41;;;;;;;0.57;0.57;;;14.50;99.90;;;;;;5045425;28;20119;-79
2024/01/31 07:21:10;;;;;;;0.47;0.43;;;14.50;99.90;;;;;;5043019;28;20057;-75
2024/01/31 07:23:36;;;;;;;1.48;0.82;;;14.50;99.90;;;;;;5045437;28;20041;-75
2024/01/31 07:26:03;;;;;;;0.63;0.40;;;14.50;99.90;;;;;;5040490;28;20021;-75
2024/01/31 07:28:36;;;;;;;1.40;0.50;;;14.50;99.90;;;;;;5045060;28;20474;-76
2024/01/31 07:31:02;;;;;;;0.90;0.60;;;14.50;99.90;;;;;;5040159;28;20411;-76
2024/01/31 07:33:28;;;;;;;1.63;0.55;;;14.50;99.90;;;;;;5042556;28;20123;-75
2024/01/31 07:35:54;;;;;;;0.60;0.60;;;14.50;99.90;;;;;;5042082;28;20124;-77
2024/01/31 07:38:20;;;;;;;0.90;0.50;;;14.50;99.90;;;;;;5049621;28;20049;-77
2024/01/31 07:40:46;;;;;;;1.00;0.40;;;14.50;99.90;;;;;;5031223;28;20025;-78
2024/01/31 07:43:12;;;;;;;1.67;0.53;;;14.50;99.90;;;;;;5035312;28;20500;-77
2024/01/31 07:45:37;;;;;;;1.03;0.53;;;14.50;99.90;;;;;;5038449;28;20047;-77
2024/01/31 07:48:03;;;;;;;0.73;0.60;;;14.50;99.90;;;;;;5051120;28;20029;-79
2024/01/31 07:50:29;;;;;;;2.25;0.60;;;14.50;99.90;;;;;;5049808;28;20032;-77
2024/01/31 07:52:55;;;;;;;1.53;0.70;;;14.60;99.90;;;;;;5046251;28;20075;-76
2024/01/31 07:55:20;;;;;;;1.90;0.80;;;14.60;99.90;;;;;;5051450;28;20096;-77
2024/01/31 07:57:46;;;;;;;4.47;0.90;;;14.50;99.90;;;;;;5049290;28;20036;-75
2024/01/31 08:00:12;;;;;;;9.93;0.93;;;14.60;99.90;;;;;;5051147;28;20029;-77
2024/01/31 08:02:38;;;;;;;7.05;1.30;;;14.50;99.90;;;;;;5050004;28;20033;-76
2024/01/31 08:05:05;;;;;;;36.13;9.80;;;14.60;99.90;;;;;;5048276;28;20045;-76
2024/01/31 08:07:30;;;;;;;69.00;34.97;;;14.50;99.90;;;;;;5049829;28;20347;-77
2024/01/31 08:09:56;;;;;;;60.33;34.23;;;14.60;99.90;;;;;;5044825;28;20043;-77
2024/01/31 08:12:22;;;;;;;197.87;107.43;;;14.50;99.90;;;;;;5049676;28;20163;-77
2024/01/31 08:14:48;;;;;;;144.77;76.23;;;14.60;99.90;;;;;;5042113;28;20052;-76
2024/01/31 08:17:14;;;;;;;93.30;49.78;;;14.60;99.90;;;;;;5043435;28;20112;-77
2024/01/31 08:19:40;;;;;;;101.80;51.97;;;14.60;99.90;;;;;;5039820;28;20060;-78
2024/01/31 08:22:06;;;;;;;89.53;46.63;;;14.60;99.90;;;;;;5076583;28;20527;-78
2024/01/31 08:24:31;;;;;;;63.63;34.90;;;14.60;99.90;;;;;;5040237;28;20041;-77
2024/01/31 08:26:57;;;;;;;65.20;36.33;;;14.60;99.90;;;;;;5052863;28;20041;-77
2024/01/31 08:29:23;;;;;;;69.57;33.37;;;14.60;99.90;;;;;;5052182;28;20100;-78
2024/01/31 08:31:48;;;;;;;69.10;34.57;;;14.60;99.90;;;;;;5052419;28;20031;-78
2024/01/31 08:34:14;;;;;;;66.43;35.03;;;14.60;99.90;;;;;;5051936;28;20102;-77
2024/01/31 08:36:40;;;;;;;58.27;29.30;;;14.60;99.90;;;;;;5045850;28;20045;-76
2024/01/31 08:39:08;;;;;;;58.87;28.80;;;14.70;99.90;;;;;;5049952;28;20124;-77
2024/01/31 08:41:34;;;;;;;59.92;28.27;;;14.70;99.90;;;;;;5044861;28;20029;-77
2024/01/31 08:44:01;;;;;;;45.67;27.80;;;14.70;99.90;;;;;;5038128;28;20115;-77
2024/01/31 08:46:28;;;;;;;47.92;25.60;;;14.60;99.90;;;;;;5047664;28;20272;-78
2024/01/31 08:48:53;;;;;;;43.70;24.48;;;14.70;99.90;;;;;;5036869;28;20048;-77
2024/01/31 08:51:19;;;;;;;40.63;22.50;;;14.70;99.90;;;;;;5054246;28;20025;-77
2024/01/31 08:53:45;;;;;;;41.67;21.60;;;14.60;99.90;;;;;;5077177;28;20025;-77
2024/01/31 08:56:11;;;;;;;44.97;23.97;;;14.60;99.90;;;;;;5044268;28;20117;-76
2024/01/31 08:58:38;;;;;;;35.53;22.13;;;14.70;99.90;;;;;;5039867;28;20070;-78
2024/01/31 09:01:03;;;;;;;;;;;14.60;99.90;;;;;;5036810;28;20615;-77
2024/01/31 09:03:29;;;;;;;38.80;21.92;;;14.60;99.90;;;;;;5047201;28;19913;-78
2024/01/31 09:05:56;;;;;;;34.93;20.33;;;14.60;99.90;;;;;;5045411;28;20091;-78
2024/01/31 09:08:22;;;;;;;37.42;19.55;;;14.60;99.90;;;;;;5045924;28;20116;-78
2024/01/31 09:10:48;;;;;;;37.00;20.07;;;14.60;99.90;;;;;;5040723;28;20117;-77
2024/01/31 09:13:14;;;;;;;41.63;23.10;;;14.70;99.90;;;;;;5049304;28;20036;-77
2024/01/31 09:15:39;;;;;;;35.00;20.87;;;14.70;99.90;;;;;;5061699;28;20270;-77
2024/01/31 09:18:05;;;;;;;36.13;19.73;;;14.70;99.90;;;;;;5045260;28;20052;-77
2024/01/31 09:20:31;;;;;;;37.17;19.30;;;14.70;99.90;;;;;;5053842;28;20020;-77
2024/01/31 09:22:57;;;;;;;34.17;17.77;;;14.70;99.90;;;;;;5044586;28;20029;-77
2024/01/31 09:25:23;;;;;;;31.67;18.77;;;14.70;99.90;;;;;;5047285;28;20061;-77
2024/01/31 09:27:48;;;;;;;31.67;17.90;;;14.80;99.90;;;;;;5066135;28;20068;-77
2024/01/31 09:30:14;;;;;;;39.03;22.10;;;14.80;99.90;;;;;;5035813;28;20366;-77
2024/01/31 09:32:40;;;;;;;43.67;23.77;;;14.80;99.90;;;;;;5045037;28;20100;-77
2024/01/31 09:35:06;;;;;;;34.47;19.63;;;14.80;99.90;;;;;;5044233;28;20051;-76
2024/01/31 09:37:32;;;;;;;31.65;18.85;;;14.80;99.90;;;;;;5040473;28;20049;-76
2024/01/31 09:40:01;;;;;;;37.25;23.77;;;14.80;99.90;;;;;;5038910;28;20033;-77
2024/01/31 09:42:27;;;;;;;34.40;20.17;;;14.90;99.90;;;;;;5037919;28;20529;-78
2024/01/31 09:44:57;;;;;;;34.90;20.07;;;14.80;99.90;;;;;;5066833;28;20090;-77
2024/01/31 09:47:27;;;;;;;32.92;18.55;;;14.90;99.90;;;;;;5034132;28;20382;-77
2024/01/31 09:49:56;;;;;;;33.28;18.27;;;14.90;99.90;;;;;;5043331;28;20047;-77
2024/01/31 09:52:28;;;;;;;31.92;18.35;;;15.00;99.90;;;;;;5046898;28;20475;-77
2024/01/31 09:55:00;;;;;;;29.35;17.70;;;15.00;99.90;;;;;;5058584;28;20513;-77
2024/01/31 09:57:27;;;;;;;31.42;17.48;;;15.00;99.90;;;;;;5048177;28;20025;-77
2024/01/31 09:59:56;;;;;;;30.10;16.73;;;15.00;99.90;;;;;;5049629;28;20028;-78
2024/01/31 10:02:22;;;;;;;25.17;15.02;;;15.00;99.90;;;;;;5048039;28;20029;-78
2024/01/31 10:04:51;;;;;;;27.95;15.40;;;15.00;99.90;;;;;;5049070;28;20509;-78
2024/01/31 10:07:24;;;;;;;26.13;14.60;;;15.00;99.90;;;;;;5057254;28;20026;-77
2024/01/31 10:09:53;;;;;;;24.80;15.18;;;15.00;99.90;;;;;;5051870;28;20027;-77
2024/01/31 10:12:20;;;;;;;25.75;14.30;;;15.00;99.90;;;;;;5042195;28;20040;-77
2024/01/31 10:14:48;;;;;;;24.48;13.95;;;15.10;99.90;;;;;;5045253;28;20048;-78
2024/01/31 10:17:14;;;;;;;23.10;12.88;;;15.10;99.90;;;;;;5048585;28;20029;-77
2024/01/31 10:19:40;;;;;;;53.10;32.25;;;15.10;99.90;;;;;;5039745;28;20025;-78
2024/01/31 10:22:06;;;;;;;59.57;34.53;;;15.10;99.90;;;;;;5033037;28;20029;-77
2024/01/31 10:24:32;;;;;;;;;;;15.20;99.90;;;;;;5035195;28;20040;-76
2024/01/31 10:26:58;;;;;;;38.60;21.33;;;15.20;99.90;;;;;;5038864;28;20003;-75
2024/01/31 10:29:24;;;;;;;33.47;20.67;;;15.20;99.90;;;;;;5033401;28;20116;-75
2024/01/31 10:31:52;;;;;;;30.57;19.03;;;15.30;99.90;;;;;;5031704;28;20053;-78
2024/01/31 10:34:19;;;;;;;32.45;19.20;;;15.30;99.90;;;;;;5040734;28;20366;-77
2024/01/31 10:36:45;;;;;;;;;;;15.30;99.90;;;;;;5032122;28;20080;-76
2024/01/31 10:39:13;;;;;;;34.03;17.90;;;15.30;99.90;;;;;;5040934;28;19915;-76
2024/01/31 10:41:42;;;;;;;28.38;16.73;;;15.40;99.90;;;;;;5050589;28;20029;-76
2024/01/31 10:44:13;;;;;;;28.08;16.77;;;15.40;99.90;;;;;;5038712;28;20048;-77
2024/01/31 10:46:39;;;;;;;29.80;16.35;;;15.40;99.90;;;;;;5041689;28;20051;-77
2024/01/31 10:49:05;;;;;;;27.08;15.68;;;15.40;99.90;;;;;;5035040;28;20026;-77
2024/01/31 10:51:34;;;;;;;25.85;14.18;;;15.50;99.90;;;;;;5040283;28;20041;-76
2024/01/31 10:54:03;;;;;;;25.33;14.35;;;15.40;99.90;;;;;;5041861;28;20029;-77
2024/01/31 10:56:30;;;;;;;28.48;14.07;;;15.50;99.90;;;;;;5053182;28;20052;-76
2024/01/31 10:58:59;;;;;;;23.15;14.38;;;15.50;99.90;;;;;;5061739;28;20597;-78
2024/01/31 11:01:30;;;;;;;22.90;14.20;;;15.50;99.90;;;;;;5058668;28;20033;-76
2024/01/31 11:03:56;;;;;;;19.90;12.43;;;15.50;99.90;;;;;;5055762;28;20053;-76
2024/01/31 11:06:25;;;;;;;28.70;14.37;;;15.50;99.90;;;;;;5049539;28;20110;-75
2024/01/31 11:08:52;;;;;;;26.83;13.77;;;15.60;99.90;;;;;;5038985;28;20032;-75
2024/01/31 11:11:18;;;;;;;22.13;13.05;;;15.60;99.90;;;;;;5050342;28;20119;-75
2024/01/31 11:13:44;;;;;;;18.58;12.48;;;15.60;99.90;;;;;;5044683;28;20044;-77
2024/01/31 11:16:10;;;;;;;23.23;12.33;;;15.60;99.90;;;;;;5045372;28;20033;-77
2024/01/31 11:18:36;;;;;;;18.80;11.40;;;15.60;99.90;;;;;;5049527;28;20482;-78
2024/01/31 11:21:10;;;;;;;26.88;15.32;;;15.60;99.90;;;;;;5038863;28;20048;-76
2024/01/31 11:23:36;;;;;;;36.90;19.75;;;15.70;99.90;;;;;;5038074;28;20033;-75
2024/01/31 11:26:02;;;;;;;33.00;17.00;;;15.70;99.90;;;;;;5040644;28;20524;-75
2024/01/31 11:28:28;;;;;;;33.58;16.75;;;15.70;99.90;;;;;;5047207;28;20470;-77
2024/01/31 11:30:54;;;;;;;26.90;14.07;;;15.70;99.90;;;;;;5053634;28;20025;-76
2024/01/31 11:35:04;;;;;;;39.85;19.23;;;15.80;99.90;;;;;;5071417;28;20481;-76
2024/01/31 11:37:30;;;;;;;38.75;16.70;;;16.10;99.90;;;;;;5045099;28;20123;-76
2024/01/31 11:39:56;;;;;;;44.07;18.50;;;16.10;99.90;;;;;;5046313;28;20482;-76
2024/01/31 11:42:22;;;;;;;36.37;18.00;;;16.10;99.90;;;;;;5046325;28;20258;-76
2024/01/31 11:44:48;;;;;;;45.03;19.47;;;16.10;99.90;;;;;;5046870;28;20037;-76
2024/01/31 11:47:15;;;;;;;42.73;20.67;;;16.10;99.90;;;;;;5046266;28;20044;-76
2024/01/31 11:49:41;;;;;;;42.05;20.33;;;16.20;99.90;;;;;;5046834;28;20258;-76
2024/01/31 11:52:09;;;;;;;44.30;20.23;;;16.20;99.90;;;;;;5055996;28;20029;-75
2024/01/31 11:54:35;;;;;;;43.15;19.27;;;16.20;99.90;;;;;;5047570;28;20551;-76
2024/01/31 11:57:01;;;;;;;38.13;18.17;;;16.20;99.90;;;;;;5046462;28;20561;-75
2024/01/31 11:59:27;;;;;;;45.33;18.60;;;16.20;99.90;;;;;;5047824;28;20034;-77
2024/01/31 12:01:53;;;;;;;38.93;18.83;;;16.20;99.90;;;;;;5046978;28;20567;-77
2024/01/31 12:04:24;;;;;;;39.17;18.27;;;16.20;99.90;;;;;;5044658;28;20041;-76
2024/01/31 12:06:49;;;;;;;43.72;17.33;;;16.20;99.90;;;;;;5045581;28;20120;-78
2024/01/31 12:09:16;;;;;;;38.33;15.87;;;16.30;99.90;;;;;;5041436;28;20112;-76
2024/01/31 12:11:42;;;;;;;37.55;16.77;;;16.30;99.90;;;;;;5042214;28;20053;-76
2024/01/31 12:14:08;;;;;;;36.57;16.50;;;16.30;99.90;;;;;;5048075;28;20439;-75
2024/01/31 12:16:41;;;;;;;38.25;17.65;;;16.40;99.90;;;;;;5046543;28;20271;-75
2024/01/31 12:19:07;;;;;;;33.97;16.00;;;16.40;99.90;;;;;;5050069;28;20040;-75
2024/01/31 12:21:44;;;;;;;33.75;15.20;;;16.40;99.90;;;;;;5055218;28;20036;-76
2024/01/31 12:24:10;;;;;;;41.83;14.13;;;16.40;99.90;;;;;;5078344;28;20029;-76
2024/01/31 12:26:37;;;;;;;30.83;14.63;;;16.40;99.90;;;;;;5047155;28;20036;-75
2024/01/31 12:29:03;;;;;;;28.58;13.85;;;16.40;99.90;;;;;;5044626;28;20270;-75
2024/01/31 12:31:29;;;;;;;26.98;13.55;;;16.40;99.90;;;;;;5045478;28;20103;-76
2024/01/31 12:33:54;;;;;;;32.60;14.27;;;16.40;99.90;;;;;;5044513;28;20489;-75
2024/01/31 12:36:21;;;;;;;31.87;14.57;;;16.40;99.90;;;;;;5045873;28;20461;-75
2024/01/31 12:38:46;;;;;;;31.05;13.93;;;16.40;99.90;;;;;;5042701;28;20033;-76
2024/01/31 12:41:12;;;;;;;29.27;13.33;;;16.50;99.90;;;;;;5044115;28;21281;-76